createdAt,value
2019-01-31T00:02:07.826Z,12.53
2019-01-31T00:04:52.690Z,19.00
2019-01-31T00:07:53.147Z,14.87
2019-01-31T00:10:58.167Z,14.33
2019-01-31T00:13:43.895Z,13.10
2019-01-31T00:16:31.572Z,15.30
2019-01-31T00:19:08.555Z,14.20
2019-01-31T00:22:11.140Z,14.43
2019-01-31T00:24:57.855Z,14.33
2019-01-31T00:27:47.387Z,18.53
2019-01-31T00:30:21.687Z,11.57
2019-01-31T00:33:24.294Z,13.93
2019-01-31T00:36:11.224Z,14.10
2019-01-31T00:39:01.661Z,16.23
2019-01-31T00:41:32.962Z,17.73
2019-01-31T00:44:20.786Z,12.80
2019-01-31T00:47:14.176Z,17.95
2019-01-31T00:49:55.838Z,12.80
2019-01-31T00:52:29.583Z,16.47
2019-01-31T00:55:10.246Z,14.43
2019-01-31T00:58:03.707Z,15.67
2019-01-31T01:00:41.590Z,16.27
2019-01-31T01:03:16.490Z,11.90
2019-01-31T01:06:07.092Z,19.03
2019-01-31T01:08:46.199Z,12.93
2019-01-31T01:11:33.485Z,13.97
2019-01-31T01:14:30.575Z,13.83
2019-01-31T01:17:17.881Z,12.03
2019-01-31T01:20:11.222Z,16.10
2019-01-31T01:23:07.441Z,9.63
2019-01-31T01:25:54.653Z,13.50
2019-01-31T01:28:36.271Z,20.23
2019-01-31T01:31:14.408Z,14.27
2019-01-31T01:34:16.856Z,17.10
2019-01-31T01:36:51.475Z,15.00
2019-01-31T01:39:24.219Z,10.17
2019-01-31T01:42:20.688Z,14.90
2019-01-31T01:45:11.834Z,14.40
2019-01-31T01:47:58.092Z,19.83
2019-01-31T01:50:51.347Z,12.77
2019-01-31T01:53:24.794Z,12.70
2019-01-31T01:56:13.021Z,14.70
2019-01-31T01:59:16.631Z,15.67
2019-01-31T02:01:51.059Z,22.97
2019-01-31T02:04:33.745Z,17.60
2019-01-31T02:07:24.148Z,22.37
2019-01-31T02:10:15.214Z,16.40
2019-01-31T02:13:02.649Z,18.77
2019-01-31T02:15:52.055Z,16.80
2019-01-31T02:18:37.834Z,21.03
2019-01-31T02:21:17.581Z,18.23
2019-01-31T02:24:14.029Z,19.17
2019-01-31T02:27:04.900Z,17.30
2019-01-31T02:29:55.586Z,19.53
2019-01-31T02:32:44.789Z,23.13
2019-01-31T02:35:31.255Z,23.13
2019-01-31T02:38:19.111Z,23.83
2019-01-31T02:41:09.945Z,21.23
2019-01-31T02:43:42.398Z,23.37
2019-01-31T02:46:14.495Z,22.00
2019-01-31T02:48:46.349Z,19.67
2019-01-31T02:51:41.515Z,22.17
2019-01-31T02:54:15.883Z,20.33
2019-01-31T02:57:09.341Z,16.43
2019-01-31T02:59:53.747Z,21.17
2019-01-31T03:02:44.608Z,20.57
2019-01-31T03:05:19.430Z,22.33
2019-01-31T03:08:08.818Z,21.93
2019-01-31T03:11:01.828Z,17.43
2019-01-31T03:13:39.817Z,23.23
2019-01-31T03:16:28.095Z,24.87
2019-01-31T03:19:24.491Z,32.40
2019-01-31T03:22:08.218Z,21.63
2019-01-31T03:24:56.013Z,21.57
2019-01-31T03:27:52.543Z,20.17
2019-01-31T03:30:28.892Z,20.07
2019-01-31T03:33:22.759Z,21.00
2019-01-31T03:36:02.798Z,21.60
2019-01-31T03:38:42.474Z,23.10
2019-01-31T03:41:39.588Z,18.33
2019-01-31T03:44:24.414Z,26.40
2019-01-31T03:47:13.576Z,27.17
2019-01-31T03:49:46.958Z,19.63
2019-01-31T03:52:24.807Z,21.07
2019-01-31T03:55:14.942Z,23.67
2019-01-31T03:57:59.097Z,25.83
2019-01-31T04:01:04.750Z,15.30
2019-01-31T04:03:35.668Z,29.67
2019-01-31T04:06:06.520Z,30.10
2019-01-31T04:08:34.672Z,31.90
2019-01-31T04:11:03.324Z,32.80
2019-01-31T04:13:32.962Z,30.10
2019-01-31T04:16:01.055Z,32.57
2019-01-31T04:18:29.425Z,32.43
2019-01-31T04:20:57.497Z,31.83
2019-01-31T04:23:25.349Z,37.00
2019-01-31T04:25:54.322Z,37.70
2019-01-31T04:28:23.871Z,33.03
2019-01-31T04:30:52.422Z,33.53
2019-01-31T04:33:20.539Z,30.83
2019-01-31T04:35:48.586Z,33.00
2019-01-31T04:38:19.784Z,42.30
2019-01-31T04:40:46.461Z,28.17
2019-01-31T04:43:14.700Z,36.57
2019-01-31T04:45:44.909Z,35.97
2019-01-31T04:48:13.213Z,36.73
2019-01-31T04:50:41.753Z,36.83
2019-01-31T04:53:09.197Z,41.13
2019-01-31T04:55:38.204Z,35.77
2019-01-31T04:58:06.850Z,39.33
2019-01-31T05:00:34.923Z,37.37
2019-01-31T05:03:03.050Z,38.77
2019-01-31T05:05:31.598Z,37.00
2019-01-31T05:08:02.190Z,34.63
2019-01-31T05:10:42.684Z,30.83
2019-01-31T05:13:04.516Z,38.23
2019-01-31T05:15:32.954Z,41.80
2019-01-31T05:18:00.864Z,36.33
2019-01-31T05:20:29.531Z,33.37
2019-01-31T05:22:57.311Z,34.00
2019-01-31T05:25:25.174Z,40.80
2019-01-31T05:27:53.378Z,35.90
2019-01-31T05:30:21.211Z,35.50
2019-01-31T05:32:49.886Z,31.17
2019-01-31T05:35:18.433Z,35.37
2019-01-31T05:37:46.575Z,73.35
2019-01-31T05:40:16.445Z,49.07
2019-01-31T05:42:44.557Z,47.37
2019-01-31T05:45:13.545Z,41.47
2019-01-31T05:47:43.128Z,40.90
2019-01-31T05:50:12.447Z,38.57
2019-01-31T05:52:41.053Z,43.63
2019-01-31T05:55:09.778Z,34.00
2019-01-31T05:57:37.700Z,39.23
2019-01-31T06:00:06.783Z,34.70
2019-01-31T06:02:36.838Z,39.13
2019-01-31T06:05:05.201Z,39.60
2019-01-31T06:07:34.916Z,37.30
2019-01-31T06:10:03.885Z,35.27
2019-01-31T06:12:32.040Z,33.17
2019-01-31T06:15:01.350Z,31.43
2019-01-31T06:17:29.405Z,41.23
2019-01-31T06:19:57.514Z,38.63
2019-01-31T06:22:27.215Z,35.23
2019-01-31T06:24:55.850Z,33.97
2019-01-31T06:27:23.935Z,39.63
2019-01-31T06:29:52.539Z,39.90
2019-01-31T06:32:20.735Z,34.67
2019-01-31T06:34:48.578Z,37.40
2019-01-31T06:37:16.655Z,29.03
2019-01-31T06:39:45.592Z,42.40
2019-01-31T06:42:14.210Z,43.83
2019-01-31T06:44:42.919Z,30.40
2019-01-31T06:47:12.287Z,40.73
2019-01-31T06:49:40.093Z,44.10
2019-01-31T06:52:10.718Z,46.87
2019-01-31T06:54:39.361Z,46.80
2019-01-31T06:57:07.255Z,55.57
2019-01-31T06:59:35.095Z,75.63
2019-01-31T07:02:03.490Z,96.67
2019-01-31T07:04:32.134Z,108.53
2019-01-31T07:07:00.038Z,100.17
2019-01-31T07:09:28.018Z,81.03
2019-01-31T07:11:56.727Z,62.60
2019-01-31T07:14:24.887Z,60.23
2019-01-31T07:16:53.347Z,71.77
2019-01-31T07:19:21.422Z,62.37
2019-01-31T07:21:51.134Z,73.03
2019-01-31T07:24:19.910Z,80.43
2019-01-31T07:26:48.017Z,96.50
2019-01-31T07:29:16.072Z,109.20
2019-01-31T07:31:44.273Z,64.07
2019-01-31T07:34:12.920Z,99.53
2019-01-31T07:36:42.429Z,106.73
2019-01-31T07:39:10.574Z,83.83
2019-01-31T07:41:41.505Z,86.10
2019-01-31T07:44:06.563Z,93.60
2019-01-31T07:46:34.638Z,105.13
2019-01-31T07:49:03.578Z,133.60
2019-01-31T07:51:31.676Z,88.50
2019-01-31T07:53:59.819Z,84.57
2019-01-31T07:56:29.097Z,73.60
2019-01-31T07:58:57.343Z,97.30
2019-01-31T08:01:25.411Z,104.60
2019-01-31T08:04:02.226Z,101.80
2019-01-31T08:06:22.648Z,79.53
2019-01-31T08:08:51.303Z,133.37
2019-01-31T08:11:20.178Z,137.20
2019-01-31T08:13:48.444Z,74.03
2019-01-31T08:16:17.051Z,69.57
2019-01-31T08:18:44.975Z,79.67
2019-01-31T08:21:13.068Z,105.67
2019-01-31T08:23:40.920Z,75.57
2019-01-31T08:26:09.054Z,138.83
2019-01-31T08:28:36.859Z,106.40
2019-01-31T08:31:05.256Z,111.37
2019-01-31T08:33:34.225Z,107.17
2019-01-31T08:36:01.986Z,72.13
2019-01-31T08:38:29.852Z,95.77
2019-01-31T08:40:58.494Z,104.60
2019-01-31T08:43:26.623Z,79.17
2019-01-31T08:45:55.797Z,75.90
2019-01-31T08:48:23.938Z,86.17
2019-01-31T08:50:52.083Z,134.63
2019-01-31T08:53:20.654Z,125.30
2019-01-31T08:55:49.371Z,124.00
2019-01-31T08:58:17.351Z,120.27
2019-01-31T09:00:47.333Z,118.73
2019-01-31T09:03:15.870Z,105.47
2019-01-31T09:05:43.988Z,65.87
2019-01-31T09:08:13.111Z,73.70
2019-01-31T09:10:41.042Z,65.17
2019-01-31T09:13:10.540Z,30.60
2019-01-31T09:15:39.209Z,89.97
2019-01-31T09:18:08.224Z,95.63
2019-01-31T09:20:40.759Z,34.47
2019-01-31T09:23:39.988Z,64.97
2019-01-31T09:26:15.012Z,107.27
2019-01-31T09:29:15.142Z,67.63
2019-01-31T09:32:02.881Z,74.73
2019-01-31T09:34:55.015Z,69.93
2019-01-31T09:37:51.787Z,96.37
2019-01-31T09:40:33.095Z,42.57
2019-01-31T09:43:26.757Z,85.43
2019-01-31T09:46:23.062Z,39.47
2019-01-31T09:49:28.907Z,121.97
2019-01-31T09:52:04.097Z,147.15
2019-01-31T09:54:34.899Z,52.07
2019-01-31T09:57:21.896Z,68.47
2019-01-31T09:59:56.621Z,105.87
2019-01-31T10:02:43.342Z,104.67
2019-01-31T10:05:29.440Z,88.47
2019-01-31T10:08:17.755Z,29.73
2019-01-31T10:10:54.475Z,48.20
2019-01-31T10:13:31.523Z,44.63
2019-01-31T10:16:21.503Z,36.63
2019-01-31T10:18:59.765Z,64.93
2019-01-31T10:21:33.586Z,82.80
2019-01-31T10:24:19.529Z,132.30
2019-01-31T10:27:15.862Z,84.03
2019-01-31T10:29:57.905Z,70.40
2019-01-31T10:32:52.346Z,61.20
2019-01-31T10:35:41.868Z,78.83
2019-01-31T10:38:14.600Z,50.30
2019-01-31T10:41:11.616Z,60.37
2019-01-31T10:43:54.042Z,49.67
2019-01-31T10:46:43.204Z,53.73
2019-01-31T10:49:25.312Z,34.47
2019-01-31T10:52:10.998Z,39.63
2019-01-31T10:55:02.080Z,23.13
2019-01-31T10:57:43.199Z,44.73
2019-01-31T11:00:24.597Z,33.07
2019-01-31T11:03:10.224Z,23.30
2019-01-31T11:05:56.159Z,33.63
2019-01-31T11:08:37.486Z,34.13
2019-01-31T11:11:27.711Z,19.27
2019-01-31T11:13:59.352Z,26.07
2019-01-31T11:16:56.630Z,27.23
2019-01-31T11:19:46.613Z,21.93
2019-01-31T11:22:33.336Z,30.90
2019-01-31T11:25:09.374Z,25.30
2019-01-31T11:27:57.229Z,38.67
2019-01-31T11:30:55.610Z,28.77
2019-01-31T11:33:36.583Z,24.17
2019-01-31T11:36:22.912Z,30.13
2019-01-31T11:39:20.952Z,34.47
2019-01-31T11:42:05.912Z,37.97
2019-01-31T11:44:50.144Z,32.30
2019-01-31T11:47:38.498Z,30.20
2019-01-31T11:50:25.308Z,53.67
2019-01-31T11:53:02.486Z,39.90
2019-01-31T11:55:33.340Z,53.63
2019-01-31T11:58:22.195Z,76.40
2019-01-31T12:00:52.967Z,41.73
2019-01-31T12:03:19.392Z,23.43
2019-01-31T12:05:48.082Z,34.73
2019-01-31T12:08:17.271Z,30.03
2019-01-31T12:10:45.530Z,64.60
2019-01-31T12:13:23.305Z,71.87
2019-01-31T12:15:42.385Z,160.20
2019-01-31T12:18:11.091Z,78.97
2019-01-31T12:20:41.028Z,78.35
2019-01-31T12:23:10.183Z,63.80
2019-01-31T12:25:40.828Z,41.33
2019-01-31T12:28:10.044Z,36.90
2019-01-31T12:30:38.216Z,31.97
2019-01-31T12:33:07.832Z,30.83
2019-01-31T12:35:38.841Z,30.33
2019-01-31T12:38:07.551Z,27.13
2019-01-31T12:40:35.705Z,22.63
2019-01-31T12:43:04.565Z,21.00
2019-01-31T12:45:32.712Z,13.57
2019-01-31T12:48:00.964Z,17.20
2019-01-31T12:50:30.002Z,10.43
2019-01-31T12:52:59.147Z,23.10
2019-01-31T12:55:27.833Z,27.63
2019-01-31T12:57:57.219Z,19.50
2019-01-31T13:00:27.518Z,25.93
2019-01-31T13:02:55.418Z,19.67
2019-01-31T13:05:24.002Z,14.87
2019-01-31T13:07:53.192Z,26.93
2019-01-31T13:10:22.310Z,38.33
2019-01-31T13:12:52.550Z,36.10
2019-01-31T13:15:20.943Z,36.17
2019-01-31T13:17:48.659Z,30.00
2019-01-31T13:20:19.234Z,31.77
2019-01-31T13:22:48.080Z,24.53
2019-01-31T13:25:16.352Z,33.03
2019-01-31T13:27:45.367Z,26.17
2019-01-31T13:30:15.837Z,29.07
2019-01-31T13:32:44.374Z,17.70
2019-01-31T13:35:13.178Z,16.83
2019-01-31T13:37:41.346Z,25.57
2019-01-31T13:40:11.417Z,19.43
2019-01-31T13:42:39.798Z,24.50
2019-01-31T13:45:09.521Z,25.60
2019-01-31T13:47:39.542Z,30.93
2019-01-31T13:50:10.880Z,27.30
2019-01-31T13:52:41.201Z,35.57
2019-01-31T13:55:13.081Z,29.43
2019-01-31T13:57:42.378Z,28.17
2019-01-31T14:00:12.303Z,29.13
2019-01-31T14:02:40.990Z,30.10
2019-01-31T14:05:09.885Z,32.37
2019-01-31T14:07:39.486Z,21.40
2019-01-31T14:10:09.980Z,20.27
2019-01-31T14:12:37.869Z,19.53
2019-01-31T14:15:07.888Z,24.20
2019-01-31T14:17:36.968Z,24.70
2019-01-31T14:20:06.159Z,23.50
2019-01-31T14:22:42.865Z,22.83
2019-01-31T14:25:03.123Z,25.33
2019-01-31T14:27:32.955Z,25.20
2019-01-31T14:30:03.030Z,26.10
2019-01-31T14:32:31.249Z,24.10
2019-01-31T14:35:00.027Z,26.33
2019-01-31T14:37:28.151Z,25.00
2019-01-31T14:39:57.021Z,28.93
2019-01-31T14:42:27.189Z,29.53
2019-01-31T14:44:55.014Z,24.00
2019-01-31T14:47:23.224Z,19.40
2019-01-31T14:49:53.480Z,24.30
2019-01-31T14:52:21.771Z,23.17
2019-01-31T14:54:50.385Z,25.07
2019-01-31T14:57:19.962Z,24.47
2019-01-31T14:59:48.026Z,20.67
2019-01-31T15:02:16.600Z,21.63
2019-01-31T15:04:45.244Z,27.73
2019-01-31T15:07:14.912Z,28.10
2019-01-31T15:09:42.949Z,23.43
2019-01-31T15:12:11.062Z,14.47
2019-01-31T15:14:40.260Z,27.03
2019-01-31T15:17:08.919Z,24.07
2019-01-31T15:19:39.456Z,26.63
2019-01-31T15:22:07.564Z,23.43
2019-01-31T15:24:35.681Z,24.58
2019-01-31T15:27:04.573Z,23.77
2019-01-31T15:29:33.037Z,28.08
2019-01-31T15:32:01.559Z,30.50
2019-01-31T15:34:29.029Z,14.17
2019-01-31T15:36:57.165Z,30.63
2019-01-31T15:39:25.764Z,23.40
2019-01-31T15:41:54.204Z,27.00
2019-01-31T15:44:22.770Z,26.77
2019-01-31T15:46:51.620Z,22.80
2019-01-31T15:49:20.295Z,20.57
2019-01-31T15:51:50.591Z,34.30
2019-01-31T15:54:20.273Z,17.53
2019-01-31T15:56:48.219Z,31.70
2019-01-31T15:59:16.301Z,23.53
2019-01-31T16:01:45.585Z,33.90
2019-01-31T16:04:14.585Z,21.60
2019-01-31T16:06:42.730Z,22.43
2019-01-31T16:09:11.326Z,9.40
2019-01-31T16:11:39.097Z,13.37
2019-01-31T16:14:07.765Z,24.33
2019-01-31T16:16:35.626Z,23.02
2019-01-31T16:19:04.336Z,12.63
2019-01-31T16:21:32.848Z,17.70
2019-01-31T16:24:01.478Z,11.03
2019-01-31T16:26:29.625Z,53.47
2019-01-31T16:28:58.806Z,17.73
2019-01-31T16:31:28.135Z,17.57
2019-01-31T16:33:56.262Z,21.77
2019-01-31T16:36:24.184Z,16.63
2019-01-31T16:38:52.291Z,25.97
2019-01-31T16:41:20.355Z,25.50
2019-01-31T16:43:48.395Z,21.53
2019-01-31T16:46:16.495Z,26.77
2019-01-31T16:48:44.668Z,23.73
2019-01-31T16:51:15.077Z,29.07
2019-01-31T16:53:45.213Z,14.37
2019-01-31T16:56:13.694Z,16.07
2019-01-31T16:58:41.498Z,28.40
2019-01-31T17:01:11.130Z,30.33
2019-01-31T17:03:40.039Z,29.90
2019-01-31T17:06:09.661Z,29.33
2019-01-31T17:08:37.413Z,31.70
2019-01-31T17:11:05.952Z,16.63
2019-01-31T17:13:35.583Z,29.63
2019-01-31T17:16:05.121Z,20.60
2019-01-31T17:18:32.821Z,15.00
2019-01-31T17:21:01.562Z,19.93
2019-01-31T17:23:29.686Z,21.77
2019-01-31T17:25:58.247Z,25.93
2019-01-31T17:28:28.051Z,24.57
2019-01-31T17:30:56.225Z,24.43
2019-01-31T17:33:25.174Z,32.33
2019-01-31T17:35:53.264Z,23.90
2019-01-31T17:38:23.812Z,19.33
2019-01-31T17:40:52.903Z,23.60
2019-01-31T17:43:20.657Z,32.03
2019-01-31T17:45:49.025Z,30.40
2019-01-31T17:48:17.844Z,28.90
2019-01-31T17:50:46.090Z,18.20
2019-01-31T17:53:14.789Z,41.03
2019-01-31T17:55:42.547Z,24.83
2019-01-31T17:58:12.274Z,32.07
2019-01-31T18:01:09.037Z,21.00
2019-01-31T18:03:37.658Z,28.77
2019-01-31T18:06:07.818Z,19.30
2019-01-31T18:08:35.913Z,22.90
2019-01-31T18:11:04.606Z,33.50
2019-01-31T18:13:33.216Z,22.37
2019-01-31T18:16:01.773Z,23.77
2019-01-31T18:18:30.436Z,28.13
2019-01-31T18:20:58.533Z,30.83
2019-01-31T18:23:27.272Z,28.43
2019-01-31T18:25:54.768Z,36.03
2019-01-31T18:28:24.388Z,23.97
2019-01-31T18:30:52.533Z,31.63
2019-01-31T18:33:20.584Z,34.07
2019-01-31T18:35:49.488Z,29.50
2019-01-31T18:38:18.872Z,29.87
2019-01-31T18:40:47.462Z,28.50
2019-01-31T18:43:16.542Z,36.30
2019-01-31T18:45:52.941Z,34.00
2019-01-31T18:48:12.997Z,34.83
2019-01-31T18:50:41.707Z,33.67
2019-01-31T18:53:10.295Z,34.03
2019-01-31T18:55:38.297Z,30.20
2019-01-31T18:58:07.933Z,31.83
2019-01-31T19:00:43.420Z,29.40
2019-01-31T19:03:11.476Z,35.70
2019-01-31T19:05:39.368Z,33.67
2019-01-31T19:08:09.090Z,36.77
2019-01-31T19:10:43.391Z,28.70
2019-01-31T19:13:07.445Z,31.67
2019-01-31T19:15:35.540Z,38.30
2019-01-31T19:18:05.928Z,37.10
2019-01-31T19:20:31.673Z,37.97
2019-01-31T19:23:01.086Z,33.80
2019-01-31T19:25:28.953Z,34.17
2019-01-31T19:27:56.807Z,36.13
2019-01-31T19:30:26.813Z,30.47
2019-01-31T19:32:55.576Z,34.60
2019-01-31T19:35:23.790Z,33.43
2019-01-31T19:38:01.491Z,36.10
2019-01-31T19:40:22.378Z,39.27
2019-01-31T19:42:50.202Z,39.23
2019-01-31T19:45:22.806Z,41.67
2019-01-31T19:47:52.013Z,38.73
2019-01-31T19:50:20.121Z,40.80
2019-01-31T19:52:49.039Z,36.63
2019-01-31T19:55:17.195Z,36.43
2019-01-31T19:57:46.163Z,33.07
2019-01-31T20:00:16.679Z,34.93
2019-01-31T20:02:44.874Z,40.80
2019-01-31T20:05:13.392Z,37.83
2019-01-31T20:07:42.062Z,40.43
2019-01-31T20:10:10.518Z,41.10
2019-01-31T20:12:38.852Z,36.50
2019-01-31T20:15:09.285Z,35.10
2019-01-31T20:17:37.130Z,33.77
2019-01-31T20:20:06.292Z,28.47
2019-01-31T20:22:35.572Z,17.73
2019-01-31T20:25:03.752Z,33.47
2019-01-31T20:27:31.858Z,33.43
2019-01-31T20:30:00.006Z,30.00
2019-01-31T20:32:28.041Z,30.27
2019-01-31T20:34:55.832Z,26.90
2019-01-31T20:37:24.186Z,27.60
2019-01-31T20:39:53.441Z,34.10
2019-01-31T20:42:21.609Z,34.90
2019-01-31T20:44:50.057Z,35.37
2019-01-31T20:47:19.264Z,30.67
2019-01-31T20:49:48.357Z,32.63
2019-01-31T20:52:16.700Z,30.73
2019-01-31T20:54:44.605Z,31.03
2019-01-31T20:57:12.586Z,31.83
2019-01-31T20:59:42.130Z,31.93
2019-01-31T21:02:10.862Z,30.53
2019-01-31T21:04:39.978Z,32.50
2019-01-31T21:07:09.892Z,31.47
2019-01-31T21:09:38.038Z,32.20
2019-01-31T21:12:06.652Z,32.93
2019-01-31T21:14:34.804Z,24.47
2019-01-31T21:17:03.270Z,34.87
2019-01-31T21:19:31.356Z,25.60
2019-01-31T21:22:00.071Z,30.70
2019-01-31T21:24:28.685Z,27.00
2019-01-31T21:26:57.059Z,32.07
2019-01-31T21:29:25.362Z,27.03
2019-01-31T21:31:53.560Z,28.47
2019-01-31T21:34:21.913Z,27.07
2019-01-31T21:36:50.516Z,28.33
2019-01-31T21:39:19.985Z,27.27
2019-01-31T21:41:49.120Z,35.90
2019-01-31T21:44:17.699Z,26.97
2019-01-31T21:46:47.748Z,29.87
2019-01-31T21:49:15.880Z,26.57
2019-01-31T21:51:45.651Z,32.47
2019-01-31T21:54:15.322Z,20.33
2019-01-31T21:56:45.001Z,27.47
2019-01-31T21:59:13.877Z,29.73
2019-01-31T22:01:42.604Z,32.43
2019-01-31T22:04:11.183Z,22.50
2019-01-31T22:06:39.252Z,32.63
2019-01-31T22:09:09.766Z,22.67
2019-01-31T22:11:38.306Z,22.60
2019-01-31T22:14:06.458Z,19.83
2019-01-31T22:16:34.342Z,21.83
2019-01-31T22:19:02.588Z,24.53
2019-01-31T22:21:30.747Z,24.17
2019-01-31T22:23:59.445Z,25.73
2019-01-31T22:26:27.207Z,18.63
2019-01-31T22:28:55.563Z,19.63
2019-01-31T22:31:23.369Z,24.97
2019-01-31T22:33:51.307Z,20.90
2019-01-31T22:36:20.450Z,23.50
2019-01-31T22:38:48.261Z,25.17
2019-01-31T22:41:16.794Z,23.90
2019-01-31T22:43:45.577Z,27.90
2019-01-31T22:46:13.394Z,20.73
2019-01-31T22:48:42.426Z,19.37
2019-01-31T22:51:10.407Z,19.47
2019-01-31T22:53:38.446Z,23.00
2019-01-31T22:56:06.616Z,23.60
2019-01-31T22:58:35.063Z,22.00
2019-01-31T23:01:22.646Z,23.60
2019-01-31T23:03:50.882Z,20.37
2019-01-31T23:06:19.586Z,18.57
2019-01-31T23:08:48.623Z,19.50
2019-01-31T23:11:18.394Z,16.13
2019-01-31T23:13:46.360Z,17.27
2019-01-31T23:16:14.444Z,18.13
2019-01-31T23:18:43.059Z,15.53
2019-01-31T23:21:12.610Z,18.03
2019-01-31T23:23:40.796Z,20.37
2019-01-31T23:26:09.855Z,19.93
2019-01-31T23:28:37.829Z,18.87
2019-01-31T23:31:05.573Z,15.00
2019-01-31T23:33:33.782Z,14.87
2019-01-31T23:36:02.381Z,15.80
2019-01-31T23:38:30.357Z,18.50
2019-01-31T23:40:58.434Z,16.40
2019-01-31T23:43:27.633Z,16.83
2019-01-31T23:45:57.300Z,16.97
2019-01-31T23:48:27.509Z,14.60
2019-01-31T23:50:55.419Z,16.83
2019-01-31T23:53:23.454Z,17.10
2019-01-31T23:55:52.488Z,9.03
2019-01-31T23:58:21.048Z,13.53
